createdAt,value
2018-09-03T00:31:29.959Z,15.6
2018-09-03T00:32:19.539Z,15.6
2018-09-03T00:33:10.171Z,15.6
2018-09-03T00:34:00.467Z,15.6
2018-09-03T00:34:49.735Z,15.6
2018-09-03T00:35:40.336Z,15.7
2018-09-03T00:36:30.651Z,15.7
2018-09-03T00:37:20.190Z,15.7
2018-09-03T00:38:10.523Z,15.7
2018-09-03T00:39:00.036Z,15.7
2018-09-03T00:39:50.385Z,15.8
2018-09-03T00:40:40.753Z,15.7
2018-09-03T00:41:30.791Z,15.6
2018-09-03T00:42:20.613Z,15.6
2018-09-03T00:43:10.671Z,15.5
2018-09-03T00:44:00.432Z,15.6
2018-09-03T00:44:51.013Z,15.6
2018-09-03T00:45:41.105Z,15.6
2018-09-03T00:46:30.868Z,15.6
2018-09-03T00:47:21.502Z,15.6
2018-09-03T00:48:11.025Z,15.6
2018-09-03T00:49:01.677Z,15.6
2018-09-03T00:49:51.433Z,15.6
2018-09-03T00:50:41.518Z,15.6
2018-09-03T00:51:31.003Z,15.6
2018-09-03T00:52:21.885Z,15.6
2018-09-03T00:53:11.732Z,15.6
2018-09-03T00:54:01.205Z,15.7
2018-09-03T00:54:52.077Z,15.7
2018-09-03T00:55:41.320Z,15.7
2018-09-03T00:56:31.977Z,15.6
2018-09-03T00:57:22.280Z,15.6
2018-09-03T00:58:11.513Z,15.5
2018-09-03T00:59:01.051Z,15.5
2018-09-03T00:59:52.219Z,15.5
2018-09-03T01:00:41.425Z,15.5
2018-09-03T01:01:32.012Z,15.4
2018-09-03T01:02:20.997Z,15.4
2018-09-03T01:03:12.212Z,15.5
2018-09-03T01:04:01.983Z,15.5
2018-09-03T01:04:52.855Z,15.6
2018-09-03T01:05:42.695Z,15.6
2018-09-03T01:06:32.184Z,15.5
2018-09-03T01:07:23.302Z,15.6
2018-09-03T01:08:12.579Z,15.5
2018-09-03T01:09:02.659Z,15.5
2018-09-03T01:09:52.733Z,15.5
2018-09-03T01:10:43.057Z,15.5
2018-09-03T01:11:33.133Z,15.5
2018-09-03T01:12:23.441Z,15.4
2018-09-03T01:13:13.257Z,15.4
2018-09-03T01:14:03.090Z,15.3
2018-09-03T01:14:53.121Z,15.3
2018-09-03T01:15:43.539Z,15.4
2018-09-03T01:16:33.014Z,15.4
2018-09-03T01:17:23.584Z,15.3
2018-09-03T01:18:13.397Z,15.4
2018-09-03T01:19:02.849Z,15.4
2018-09-03T01:19:53.211Z,15.4
2018-09-03T01:20:43.594Z,15.4
2018-09-03T01:21:33.614Z,15.3
2018-09-03T01:22:23.686Z,15.3
2018-09-03T01:23:14.278Z,15.3
2018-09-03T01:24:04.127Z,15.4
2018-09-03T01:24:54.135Z,15.4
2018-09-03T01:25:43.943Z,15.3
2018-09-03T01:26:34.014Z,15.4
2018-09-03T01:27:24.093Z,15.3
2018-09-03T01:28:14.125Z,15.3
2018-09-03T01:29:04.232Z,15.3
2018-09-03T01:29:54.550Z,15.3
2018-09-03T01:30:58.805Z,15.3
2018-09-03T01:31:49.048Z,15.1
2018-09-03T01:32:24.752Z,15.1
2018-09-03T01:34:04.874Z,15.1
2018-09-03T01:34:55.165Z,15.1
2018-09-03T01:35:44.966Z,15.1
2018-09-03T01:36:34.992Z,15.1
2018-09-03T01:37:24.846Z,15.1
2018-09-03T01:38:14.927Z,15.1
2018-09-03T01:39:04.440Z,15.1
2018-09-03T01:39:55.334Z,15.1
2018-09-03T01:40:45.085Z,15.1
2018-09-03T01:41:34.923Z,15.2
2018-09-03T01:42:26.038Z,15.2
2018-09-03T01:43:15.824Z,15.2
2018-09-03T01:44:05.644Z,15.2
2018-09-03T01:44:55.637Z,15.1
2018-09-03T01:46:00.672Z,15.1
2018-09-03T01:46:36.261Z,15.1
2018-09-03T01:47:40.793Z,15.1
2018-09-03T01:48:15.727Z,15.1
2018-09-03T01:49:05.777Z,15.1
2018-09-03T01:49:55.547Z,15.1
2018-09-03T01:51:01.032Z,15.1
2018-09-03T01:51:36.243Z,15.1
2018-09-03T01:52:41.637Z,15.1
2018-09-03T01:53:16.432Z,15.1
2018-09-03T01:54:06.143Z,15.1
2018-09-03T01:54:56.374Z,15.1
2018-09-03T01:55:47.073Z,15.2
2018-09-03T01:56:36.061Z,15.2
2018-09-03T01:57:26.376Z,15.1
2018-09-03T01:58:16.689Z,15.1
2018-09-03T01:59:06.989Z,15
2018-09-03T01:59:56.323Z,14.9
2018-09-03T02:00:47.118Z,15
2018-09-03T02:01:37.253Z,14.9
2018-09-03T02:02:27.472Z,15
2018-09-03T02:03:16.596Z,15.1
2018-09-03T02:04:06.912Z,15.1
2018-09-03T02:04:57.003Z,15.1
2018-09-03T02:05:47.258Z,15.1
2018-09-03T02:06:37.803Z,15.1
2018-09-03T02:07:27.463Z,15.1
2018-09-03T02:08:17.248Z,15.1
2018-09-03T02:09:21.965Z,15.1
2018-09-03T02:09:57.649Z,15.1
2018-09-03T02:10:47.448Z,15.1
2018-09-03T02:11:37.230Z,15.1
2018-09-03T02:12:27.844Z,15.2
2018-09-03T02:13:17.340Z,15.2
2018-09-03T02:14:08.214Z,15.2
2018-09-03T02:14:57.780Z,15.2
2018-09-03T02:15:47.845Z,15.2
2018-09-03T02:17:28.277Z,15.2
2018-09-03T02:18:18.295Z,15.2
2018-09-03T02:19:08.185Z,15.2
2018-09-03T02:19:57.864Z,15.2
2018-09-03T02:20:48.719Z,15.3
2018-09-03T02:21:38.279Z,15.3
2018-09-03T02:22:27.787Z,15.2
2018-09-03T02:23:18.159Z,15.2
2018-09-03T02:24:08.726Z,15.1
2018-09-03T02:24:59.109Z,15.1
2018-09-03T02:25:48.944Z,15.2
2018-09-03T02:26:38.957Z,15.2
2018-09-03T02:27:29.263Z,15.1
2018-09-03T02:28:19.305Z,15.1
2018-09-03T02:29:08.877Z,15.2
2018-09-03T02:30:13.582Z,15.2
2018-09-03T02:30:48.454Z,15.2
2018-09-03T02:31:53.954Z,15.1
2018-09-03T02:32:29.109Z,15.1
2018-09-03T02:33:19.248Z,15.1
2018-09-03T02:34:08.977Z,15.1
2018-09-03T02:34:59.570Z,15.1
2018-09-03T02:35:49.588Z,15.1
2018-09-03T02:36:39.430Z,15.2
2018-09-03T02:37:29.749Z,15.1
2018-09-03T02:38:19.843Z,15.2
2018-09-03T02:39:10.169Z,15.1
2018-09-03T02:39:59.688Z,15.2
2018-09-03T02:40:49.990Z,15.1
2018-09-03T02:42:29.593Z,15.1
2018-09-03T02:43:20.261Z,15.1
2018-09-03T02:44:10.690Z,15.1
2018-09-03T02:45:00.031Z,15.1
2018-09-03T02:45:50.411Z,15.1
2018-09-03T02:46:40.521Z,15.1
2018-09-03T02:47:31.185Z,15.1
2018-09-03T02:48:20.608Z,15
2018-09-03T02:49:10.598Z,15
2018-09-03T02:50:01.154Z,14.9
2018-09-03T02:50:49.687Z,14.9
2018-09-03T02:51:40.589Z,14.9
2018-09-03T02:52:30.950Z,14.9
2018-09-03T02:53:20.164Z,14.9
2018-09-03T02:54:11.086Z,14.9
2018-09-03T02:55:00.290Z,14.9
2018-09-03T02:55:51.144Z,14.9
2018-09-03T02:56:41.187Z,14.9
2018-09-03T02:57:31.044Z,14.9
2018-09-03T02:58:21.568Z,14.9
2018-09-03T02:59:10.847Z,14.9
2018-09-03T03:00:00.982Z,14.9
2018-09-03T03:00:51.830Z,14.9
2018-09-03T03:01:41.092Z,14.9
2018-09-03T03:02:32.317Z,14.9
2018-09-03T03:03:21.156Z,14.8
2018-09-03T03:04:11.551Z,14.8
2018-09-03T03:05:01.614Z,14.9
2018-09-03T03:05:51.968Z,14.8
2018-09-03T03:06:41.476Z,14.9
2018-09-03T03:07:31.841Z,14.9
2018-09-03T03:08:21.885Z,14.9
2018-09-03T03:09:41.994Z,15
2018-09-03T03:10:01.726Z,15
2018-09-03T03:10:51.535Z,15
2018-09-03T03:11:42.484Z,15.1
2018-09-03T03:12:32.516Z,15.1
2018-09-03T03:13:23.226Z,15.1
2018-09-03T03:14:12.643Z,15.2
2018-09-03T03:15:02.739Z,15.1
2018-09-03T03:15:52.480Z,15.1
2018-09-03T03:16:42.538Z,15.1
2018-09-03T03:17:32.829Z,15.1
2018-09-03T03:18:23.196Z,15.1
2018-09-03T03:19:12.983Z,15
2018-09-03T03:20:02.825Z,15
2018-09-03T03:20:53.138Z,15
2018-09-03T03:21:42.656Z,15
2018-09-03T03:22:32.883Z,15
2018-09-03T03:23:23.049Z,15.1
2018-09-03T03:24:12.813Z,15.1
2018-09-03T03:25:02.909Z,15.1
2018-09-03T03:25:53.235Z,15.1
2018-09-03T03:26:43.589Z,15.1
2018-09-03T03:27:33.698Z,15.1
2018-09-03T03:28:23.147Z,15.1
2018-09-03T03:29:13.770Z,15.1
2018-09-03T03:30:03.617Z,15.1
2018-09-03T03:30:53.633Z,15.1
2018-09-03T03:31:43.983Z,15.1
2018-09-03T03:32:33.329Z,15.1
2018-09-03T03:33:24.124Z,15.1
2018-09-03T03:34:14.172Z,15.1
2018-09-03T03:35:04.232Z,15.1
2018-09-03T03:35:54.547Z,15
2018-09-03T03:36:44.344Z,15
2018-09-03T03:37:34.149Z,15.1
2018-09-03T03:38:24.202Z,15.1
2018-09-03T03:39:14.266Z,15.1
2018-09-03T03:40:04.639Z,15.1
2018-09-03T03:40:54.624Z,15.1
2018-09-03T03:41:44.998Z,15.1
2018-09-03T03:42:34.247Z,15.1
2018-09-03T03:43:24.895Z,15.1
2018-09-03T03:44:14.938Z,15.1
2018-09-03T03:45:05.024Z,15
2018-09-03T03:45:54.752Z,14.9
2018-09-03T03:46:45.102Z,14.9
2018-09-03T03:47:35.179Z,14.9
2018-09-03T03:48:25.304Z,14.9
2018-09-03T03:49:15.060Z,14.9
2018-09-03T03:50:05.140Z,15
2018-09-03T03:50:55.421Z,14.9
2018-09-03T03:51:44.968Z,14.9
2018-09-03T03:52:35.286Z,15
2018-09-03T03:53:25.081Z,14.9
2018-09-03T03:54:15.728Z,15
2018-09-03T03:55:06.025Z,14.9
2018-09-03T03:55:55.883Z,14.9
2018-09-03T03:56:45.598Z,14.8
2018-09-03T03:57:35.709Z,14.8
2018-09-03T03:58:26.528Z,14.9
2018-09-03T03:59:16.350Z,14.9
2018-09-03T04:00:06.446Z,14.9
2018-09-03T04:00:56.430Z,14.9
2018-09-03T04:01:46.373Z,14.9
2018-09-03T04:02:36.284Z,15
2018-09-03T04:03:26.015Z,15.1
2018-09-03T04:04:17.065Z,15.1
2018-09-03T04:05:06.291Z,15.1
2018-09-03T04:05:56.728Z,15.1
2018-09-03T04:06:46.517Z,15.1
2018-09-03T04:07:36.784Z,15.1
2018-09-03T04:08:26.245Z,15.1
2018-09-03T04:09:16.642Z,15.1
2018-09-03T04:10:06.390Z,15.1
2018-09-03T04:10:57.053Z,15.1
2018-09-03T04:11:47.135Z,15.1
2018-09-03T04:12:37.143Z,15.2
2018-09-03T04:13:27.187Z,15.2
2018-09-03T04:14:17.313Z,15.3
2018-09-03T04:15:07.324Z,15.2
2018-09-03T04:15:57.405Z,15.2
2018-09-03T04:16:47.475Z,15.3
2018-09-03T04:17:36.682Z,15.4
2018-09-03T04:18:27.832Z,15.4
2018-09-03T04:19:17.690Z,15.4
2018-09-03T04:20:06.899Z,15.5
2018-09-03T04:20:57.796Z,15.5
2018-09-03T04:21:47.544Z,15.6
2018-09-03T04:22:37.624Z,15.5
2018-09-03T04:23:30.373Z,15.6
2018-09-03T04:24:17.807Z,15.6
2018-09-03T04:25:08.172Z,15.6
2018-09-03T04:25:57.910Z,15.6
2018-09-03T04:26:47.382Z,15.6
2018-09-03T04:27:38.029Z,15.7
2018-09-03T04:28:28.149Z,15.8
2018-09-03T04:29:18.171Z,15.8
2018-09-03T04:30:07.983Z,15.8
2018-09-03T04:30:58.277Z,15.8
2018-09-03T04:31:48.351Z,15.8
2018-09-03T04:32:38.486Z,15.8
2018-09-03T04:33:29.556Z,15.8
2018-09-03T04:34:18.979Z,15.8
2018-09-03T04:35:08.646Z,15.8
2018-09-03T04:35:58.687Z,15.7
2018-09-03T04:36:49.236Z,15.7
2018-09-03T04:37:38.799Z,15.8
2018-09-03T04:38:29.161Z,15.8
2018-09-03T04:39:19.212Z,15.8
2018-09-03T04:40:08.712Z,15.8
2018-09-03T04:40:59.396Z,15.8
2018-09-03T04:41:49.115Z,15.9
2018-09-03T04:42:39.553Z,15.9
2018-09-03T05:00:17.650Z,16.1
2018-09-03T05:01:07.397Z,16.1
2018-09-03T05:01:56.903Z,16.1
2018-09-03T05:02:47.512Z,16.1
2018-09-03T05:03:36.548Z,16.2
2018-09-03T05:04:27.658Z,16.2
2018-09-03T05:05:17.931Z,16.3
2018-09-03T05:06:08.004Z,16.3
2018-09-03T05:06:57.516Z,16.3
2018-09-03T05:07:47.869Z,16.2
2018-09-03T05:08:37.941Z,16.2
2018-09-03T05:09:27.722Z,16.2
2018-09-03T05:10:18.095Z,16.3
2018-09-03T05:11:07.846Z,16.3
2018-09-03T05:11:58.736Z,16.3
2018-09-03T05:12:47.693Z,16.3
2018-09-03T05:13:37.832Z,16.4
2018-09-03T05:14:28.084Z,16.4
2018-09-03T05:15:18.174Z,16.6
2018-09-03T05:16:08.054Z,16.6
2018-09-03T05:16:58.029Z,16.8
2018-09-03T05:17:48.087Z,16.9
2018-09-03T05:18:38.709Z,16.9
2018-09-03T05:19:28.759Z,16.9
2018-09-03T05:21:58.970Z,16.9
2018-09-03T05:22:48.721Z,16.9
2018-09-03T05:23:39.099Z,16.9
2018-09-03T05:24:28.880Z,16.9
2018-09-03T05:25:18.999Z,16.9
2018-09-03T05:26:09.044Z,16.9
2018-09-03T05:26:59.358Z,16.9
2018-09-03T05:29:29.552Z,17.1
2018-09-03T05:30:19.030Z,17.1
2018-09-03T05:31:10.525Z,17.3
2018-09-03T05:31:59.703Z,17.4
2018-09-03T05:32:49.807Z,17.4
2018-09-03T05:33:39.850Z,17.5
2018-09-03T05:34:29.650Z,17.4
2018-09-03T05:35:19.780Z,17.4
2018-09-03T05:36:09.576Z,17.5
2018-09-03T05:37:00.143Z,17.6
2018-09-03T05:37:49.910Z,17.5
2018-09-03T05:38:39.981Z,17.6
2018-09-03T05:39:30.373Z,17.6
2018-09-03T05:40:20.553Z,17.7
2018-09-03T05:41:11.154Z,17.7
2018-09-03T05:42:00.609Z,17.8
2018-09-03T05:42:50.709Z,17.7
2018-09-03T05:43:41.442Z,17.7
2018-09-03T05:44:30.334Z,17.7
2018-09-03T05:45:20.940Z,17.7
2018-09-03T05:46:11.376Z,17.8
2018-09-03T05:47:00.363Z,17.8
2018-09-03T05:47:50.801Z,17.8
2018-09-03T05:48:41.137Z,17.8
2018-09-03T05:49:30.933Z,17.9
2018-09-03T05:50:21.915Z,18
2018-09-03T05:51:11.298Z,18.2
2018-09-03T05:52:01.018Z,18.1
2018-09-03T05:52:51.079Z,18.2
2018-09-03T05:53:41.683Z,18.2
2018-09-03T05:54:31.468Z,18.1
2018-09-03T05:55:21.530Z,18.2
2018-09-03T05:56:11.631Z,18.3
2018-09-03T05:57:01.685Z,18.4
2018-09-03T05:57:51.190Z,18.5
2018-09-03T05:58:41.527Z,18.5
2018-09-03T05:59:31.889Z,18.6
2018-09-03T06:01:11.979Z,18.8
2018-09-03T06:02:02.078Z,18.8
2018-09-03T06:04:32.257Z,18.8
2018-09-03T06:06:12.114Z,18.6
2018-09-03T06:07:02.130Z,18.8
2018-09-03T06:07:52.489Z,18.8
2018-09-03T06:08:42.282Z,18.8
2018-09-03T06:09:32.049Z,18.9
2018-09-03T06:10:22.926Z,18.9
2018-09-03T06:11:13.556Z,18.9
2018-09-03T06:12:02.840Z,18.8
2018-09-03T06:12:52.604Z,18.8
2018-09-03T06:13:42.934Z,18.8
2018-09-03T06:14:33.004Z,18.8
2018-09-03T06:15:23.093Z,18.9
2018-09-03T06:16:12.843Z,18.9
2018-09-03T06:17:03.223Z,18.9
2018-09-03T06:17:53.694Z,18.9
2018-09-03T06:18:43.379Z,19
2018-09-03T06:19:33.381Z,19.1
2018-09-03T06:20:23.458Z,19.2
2018-09-03T06:21:13.504Z,19.3
2018-09-03T06:22:03.630Z,19.3
2018-09-03T06:22:53.712Z,19.2
2018-09-03T06:23:43.765Z,19.1
2018-09-03T06:24:33.810Z,19.2
2018-09-03T06:25:24.117Z,19.3
2018-09-03T06:26:14.007Z,19.3
2018-09-03T06:27:04.326Z,19.2
2018-09-03T06:27:53.495Z,19.3
2018-09-03T06:28:43.859Z,19.2
2018-09-03T06:29:34.182Z,19.2
2018-09-03T06:30:23.967Z,19.4
2018-09-03T06:31:14.294Z,19.5
2018-09-03T06:32:03.835Z,19.7
2018-09-03T06:32:54.539Z,20
2018-09-03T06:33:43.924Z,20.1
2018-09-03T06:34:34.283Z,20.2
2018-09-03T06:35:24.617Z,20.4
2018-09-03T06:36:14.681Z,20.6
2018-09-03T06:37:05.078Z,20.6
2018-09-03T06:37:55.078Z,20.6
2018-09-03T06:38:44.880Z,20.8
2018-09-03T06:39:34.362Z,21.1
2018-09-03T06:41:14.779Z,21.4
2018-09-03T06:42:05.887Z,21.4
2018-09-03T06:42:55.169Z,21.6
2018-09-03T06:43:44.697Z,21.9
2018-09-03T06:44:35.327Z,21.8
2018-09-03T06:45:24.834Z,21.9
2018-09-03T06:46:14.905Z,21.9
2018-09-03T06:47:05.305Z,21.9
2018-09-03T06:47:55.287Z,22.1
2018-09-03T06:48:45.387Z,22.3
2018-09-03T06:49:35.411Z,22.4
2018-09-03T06:50:25.821Z,22.4
2018-09-03T06:51:15.624Z,22.6
2018-09-03T06:52:05.714Z,22.8
2018-09-03T06:52:55.423Z,22.8
2018-09-03T06:53:46.092Z,22.8
2018-09-03T06:54:36.072Z,22.6
2018-09-03T06:55:26.130Z,22.8
2018-09-03T06:56:16.200Z,22.9
2018-09-03T06:57:06.533Z,23.1
2018-09-03T06:57:56.350Z,22.9
2018-09-03T06:58:46.115Z,22.9
2018-09-03T06:59:36.833Z,23.1
2018-09-03T07:00:26.530Z,23.3
2018-09-03T07:01:16.640Z,23.5
2018-09-03T07:02:06.620Z,23.8
2018-09-03T07:02:56.712Z,23.9
2018-09-03T07:03:46.777Z,24.1
2018-09-03T07:04:36.566Z,24.3
2018-09-03T07:05:26.063Z,24.2
2018-09-03T07:06:16.982Z,24.2
2018-09-03T07:07:06.752Z,24.2
2018-09-03T07:07:56.204Z,24.1
2018-09-03T07:08:47.157Z,24.3
2018-09-03T07:09:37.222Z,24.3
2018-09-03T07:10:27.287Z,24.2
2018-09-03T07:11:17.363Z,24.6
2018-09-03T07:12:07.415Z,24.6
2018-09-03T07:12:57.509Z,24.6
2018-09-03T07:13:47.719Z,24.8
2018-09-03T07:14:37.610Z,24.8
2018-09-03T07:15:27.402Z,24.8
2018-09-03T07:16:17.462Z,24.4
2018-09-03T07:17:07.828Z,24.6
2018-09-03T07:17:57.579Z,24.9
2018-09-03T07:18:48.586Z,25.1
2018-09-03T07:19:38.001Z,24.9
2018-09-03T07:20:27.777Z,25.2
2018-09-03T07:21:18.163Z,25.3
2018-09-03T07:22:08.187Z,25.4
2018-09-03T07:22:57.975Z,25.3
2018-09-03T07:23:48.054Z,24.9
2018-09-03T07:24:38.397Z,24.8
2018-09-03T07:25:28.160Z,24.8
2018-09-03T07:26:17.667Z,24.6
2018-09-03T07:27:08.586Z,24.7
2018-09-03T07:27:58.686Z,24.9
2018-09-03T07:28:49.131Z,24.9
2018-09-03T07:29:38.488Z,24.9
2018-09-03T07:30:28.278Z,25.1
2018-09-03T07:31:18.335Z,25.3
2018-09-03T07:32:08.681Z,25.3
2018-09-03T07:32:58.761Z,25.1
2018-09-03T07:33:49.062Z,24.9
2018-09-03T07:34:38.896Z,24.9
2018-09-03T07:35:29.109Z,25.1
2018-09-03T07:36:19.056Z,25.1
2018-09-03T07:37:09.078Z,25.2
2018-09-03T07:37:59.411Z,25.1
2018-09-03T07:38:49.476Z,25.2
2018-09-03T07:39:39.269Z,25.3
2018-09-03T07:40:29.333Z,25.4
2018-09-03T07:41:19.115Z,25.4
2018-09-03T07:42:09.771Z,25.2
2018-09-03T07:42:59.563Z,25.1
2018-09-03T07:43:50.184Z,25.1
2018-09-03T07:44:39.668Z,25
2018-09-03T07:45:29.438Z,24.8
2018-09-03T07:46:19.526Z,24.9
2018-09-03T07:47:09.860Z,24.9
2018-09-03T07:47:59.630Z,25.2
2018-09-03T07:48:49.955Z,25.1
2018-09-03T07:49:40.385Z,25.1
2018-09-03T07:50:30.393Z,25.1
2018-09-03T07:51:20.510Z,25
2018-09-03T07:52:10.314Z,24.9
2018-09-03T07:53:00.706Z,24.9
2018-09-03T07:53:50.352Z,25.2
2018-09-03T07:54:40.553Z,25.4
2018-09-03T07:55:30.850Z,25.5
2018-09-03T07:56:20.856Z,25.4
2018-09-03T07:57:11.079Z,25.4
2018-09-03T07:58:00.972Z,25.4
2018-09-03T07:58:51.143Z,25.2
2018-09-03T07:59:40.874Z,25.1
2018-09-03T08:00:30.337Z,25.3
2018-09-03T08:01:21.502Z,25.4
2018-09-03T08:02:11.056Z,25.4
2018-09-03T08:03:01.385Z,25.6
2018-09-03T08:03:50.879Z,25.8
2018-09-03T08:04:41.479Z,26
2018-09-03T08:05:30.735Z,26.1
2018-09-03T08:06:21.448Z,26.1
2018-09-03T08:07:11.791Z,26.2
2018-09-03T08:08:01.778Z,26.3
2018-09-03T08:08:51.848Z,26.3
2018-09-03T08:09:41.315Z,26.1
2018-09-03T08:10:31.671Z,26.1
2018-09-03T08:11:22.024Z,26.3
2018-09-03T08:12:11.795Z,26.6
2018-09-03T08:13:02.524Z,26.7
2018-09-03T08:13:51.944Z,26.8
2018-09-03T08:14:42.557Z,27.1
2018-09-03T08:15:32.424Z,27.3
2018-09-03T08:16:22.118Z,27
2018-09-03T08:17:11.921Z,27.2
2018-09-03T08:18:02.264Z,27.5
2018-09-03T08:18:52.314Z,27.9
2018-09-03T08:19:42.371Z,27.6
2018-09-03T08:20:32.997Z,27.4
2018-09-03T08:21:22.804Z,27.5
2018-09-03T08:22:12.856Z,27.9
2018-09-03T08:23:02.914Z,27.9
2018-09-03T08:23:52.978Z,28
2018-09-03T08:24:43.026Z,28.5
2018-09-03T08:25:33.106Z,28.9
2018-09-03T08:26:22.896Z,28.9
2018-09-03T08:27:12.981Z,28.8
2018-09-03T08:28:03.021Z,28.5
2018-09-03T08:28:53.093Z,28.9
2018-09-03T08:29:43.709Z,29.1
2018-09-03T08:30:33.501Z,29.1
2018-09-03T08:31:23.276Z,29.3
2018-09-03T08:32:13.634Z,29.4
2018-09-03T08:33:03.703Z,29
2018-09-03T08:33:53.773Z,29
2018-09-03T08:34:44.071Z,29.3
2018-09-03T08:35:33.781Z,29.1
2018-09-03T08:36:23.968Z,28.9
2018-09-03T08:37:13.448Z,28.3
2018-09-03T08:38:04.097Z,28.2
2018-09-03T08:38:54.180Z,28.1
2018-09-03T08:39:44.205Z,28.2
2018-09-03T08:40:34.005Z,28.7
2018-09-03T08:41:24.360Z,28.7
2018-09-03T08:42:14.113Z,28.4
2018-09-03T08:43:04.468Z,28.3
2018-09-03T08:43:54.532Z,28.1
2018-09-03T08:44:44.714Z,28.4
2018-09-03T08:45:34.879Z,28.8
2018-09-03T08:46:24.727Z,28.8
2018-09-03T08:47:14.827Z,28.9
2018-09-03T08:48:34.856Z,28.9
2018-09-03T08:48:54.702Z,29.6
2018-09-03T08:49:45.035Z,29.4
2018-09-03T08:50:35.188Z,28.4
2018-09-03T08:51:24.640Z,28.6
2018-09-03T08:52:14.967Z,28.6
2018-09-03T08:53:05.247Z,28.5
2018-09-03T08:53:55.327Z,28.6
2018-09-03T08:54:45.117Z,29.1
2018-09-03T08:55:35.160Z,29.1
2018-09-03T08:56:25.233Z,29.2
2018-09-03T08:57:15.610Z,29.3
2018-09-03T08:58:05.652Z,28.4
2018-09-03T09:14:47.552Z,29.8
2018-09-03T09:15:37.312Z,28.9
2018-09-03T09:16:27.652Z,29.1
2018-09-03T09:17:17.431Z,29.4
2018-09-03T09:18:07.846Z,29.9
2018-09-03T09:18:57.809Z,30.4
2018-09-03T09:19:48.153Z,30.4
2018-09-03T09:20:37.981Z,30.1
2018-09-03T09:21:28.026Z,30.1
2018-09-03T09:22:18.113Z,30.2
2018-09-03T09:23:08.196Z,30.6
2018-09-03T09:23:58.238Z,30.6
2018-09-03T09:24:48.074Z,30.8
2018-09-03T09:25:37.899Z,30.3
2018-09-03T09:26:28.431Z,29.9
2018-09-03T09:27:17.966Z,30.1
2018-09-03T09:28:08.259Z,30.5
2018-09-03T09:28:58.005Z,30.6
2018-09-03T09:29:48.965Z,30.2
2018-09-03T09:30:38.741Z,29.9
2018-09-03T09:31:28.800Z,29.5
2018-09-03T09:32:18.315Z,29.6
2018-09-03T09:33:08.949Z,29.6
2018-09-03T09:33:58.150Z,29.5
2018-09-03T09:34:48.861Z,29.5
2018-09-03T09:35:38.312Z,29.8
2018-09-03T09:36:28.343Z,29.5
2018-09-03T09:37:19.305Z,29.7
2018-09-03T09:38:09.059Z,29.6
2018-09-03T09:38:59.385Z,29.4
2018-09-03T09:39:49.713Z,29.3
2018-09-03T09:40:39.528Z,29.1
2018-09-03T09:41:29.880Z,29.4
2018-09-03T09:42:19.385Z,29.3
2018-09-03T09:43:10.119Z,29.1
2018-09-03T09:43:59.572Z,29.6
2018-09-03T09:44:49.882Z,29.7
2018-09-03T09:45:39.719Z,30
2018-09-03T09:46:30.044Z,30.4
2018-09-03T09:47:19.831Z,29.9
2018-09-03T09:48:09.837Z,30.1
2018-09-03T09:49:00.497Z,30.1
2018-09-03T09:49:50.257Z,30.1
2018-09-03T09:50:40.595Z,30.3
2018-09-03T09:51:29.848Z,30.2
2018-09-03T09:52:19.906Z,30.3
2018-09-03T09:53:10.489Z,30.8
2018-09-03T09:54:00.253Z,31.3
2018-09-03T09:54:51.238Z,31.3
2018-09-03T09:55:40.946Z,31.8
2018-09-03T09:56:30.304Z,31.9
2018-09-03T09:57:20.883Z,31.6
2018-09-03T09:58:10.917Z,31.6
2018-09-03T09:59:01.231Z,32.5
2018-09-03T09:59:50.748Z,31.3
2018-09-03T10:00:41.098Z,31.5
2018-09-03T10:01:31.164Z,31.7
2018-09-03T10:02:21.205Z,32
2018-09-03T10:03:10.709Z,32.9
2018-09-03T10:04:01.355Z,33.4
2018-09-03T10:04:50.901Z,33.4
2018-09-03T10:05:41.808Z,33.6
2018-09-03T10:06:31.590Z,33.1
2018-09-03T10:07:20.770Z,33
2018-09-03T10:08:11.412Z,32.1
2018-09-03T10:09:01.187Z,31.3
2018-09-03T10:09:51.231Z,31.2
2018-09-03T10:10:42.002Z,31.1
2018-09-03T10:11:31.652Z,31.2
2018-09-03T10:12:22.010Z,31.4
2018-09-03T10:13:12.080Z,31.5
2018-09-03T10:14:02.119Z,30.9
2018-09-03T10:14:51.702Z,30.7
2018-09-03T10:15:41.692Z,30.7
2018-09-03T10:16:32.099Z,30.8
2018-09-03T10:17:22.119Z,31.3
2018-09-03T10:18:12.510Z,31.2
2018-09-03T10:19:01.969Z,31.1
2018-09-03T10:19:52.851Z,31
2018-09-03T10:20:42.085Z,30.5
2018-09-03T10:21:32.167Z,30.3
2018-09-03T10:22:22.534Z,30.6
2018-09-03T10:23:12.294Z,31
2018-09-03T10:24:02.977Z,31.1
2018-09-03T10:24:52.480Z,31
2018-09-03T10:25:42.204Z,30.9
2018-09-03T10:26:32.564Z,31.1
2018-09-03T10:27:22.347Z,31.2
2018-09-03T10:28:12.949Z,31.4
2018-09-03T10:29:03.032Z,31.5
2018-09-03T10:29:52.834Z,31.9
2018-09-03T10:30:43.519Z,31.8
2018-09-03T10:31:33.518Z,31.3
2018-09-03T10:32:23.598Z,30.3
2018-09-03T10:33:13.635Z,30.1
2018-09-03T10:34:03.426Z,30.3
2018-09-03T10:34:53.199Z,30.3
2018-09-03T10:35:43.566Z,30
2018-09-03T10:36:33.906Z,30.4
2018-09-03T10:37:23.991Z,30.8
2018-09-03T10:38:13.747Z,30.9
2018-09-03T10:39:04.107Z,31.2
2018-09-03T10:39:54.171Z,31.2
2018-09-03T10:40:43.695Z,31
2018-09-03T10:41:34.024Z,30.9
2018-09-03T10:42:24.328Z,30.9
2018-09-03T10:43:14.129Z,30.9
2018-09-03T10:44:03.914Z,31.1
2018-09-03T10:44:54.018Z,31.4
2018-09-03T10:45:44.350Z,31.8
2018-09-03T10:46:34.454Z,32.5
2018-09-03T10:47:24.415Z,32.6
2018-09-03T10:48:14.855Z,32.7
2018-09-03T10:49:04.588Z,32.9
2018-09-03T10:49:54.411Z,33
2018-09-03T10:50:44.712Z,33.5
2018-09-03T10:51:34.854Z,33.6
2018-09-03T10:52:24.853Z,33.6
2018-09-03T10:53:14.635Z,33.5
2018-09-03T10:54:05.320Z,33.4
2018-09-03T10:54:55.356Z,33.6
2018-09-03T10:55:45.111Z,34.1
2018-09-03T10:56:35.202Z,34.3
2018-09-03T10:57:25.819Z,34.2
2018-09-03T10:58:15.598Z,33.9
2018-09-03T10:59:05.651Z,33.6
2018-09-03T10:59:55.735Z,33.3
2018-09-03T11:00:45.805Z,33.6
2018-09-03T11:01:35.287Z,33.6
2018-09-03T11:02:25.912Z,33.5
2018-09-03T11:03:15.711Z,33.4
2018-09-03T11:04:06.057Z,33.3
2018-09-03T11:04:55.588Z,33.1
2018-09-03T11:05:45.906Z,32.9
2018-09-03T11:06:36.237Z,32.6
2018-09-03T11:07:26.298Z,32.3
2018-09-03T11:08:16.082Z,32.3
2018-09-03T11:09:05.957Z,32.1
2018-09-03T11:09:56.536Z,31.5
2018-09-03T11:10:46.278Z,31.4
2018-09-03T11:11:36.371Z,31.4
2018-09-03T11:12:26.474Z,31.3
2018-09-03T11:13:16.808Z,30.9
2018-09-03T11:14:07.095Z,31.1
2018-09-03T11:14:56.908Z,31.3
2018-09-03T11:15:46.947Z,31.6
2018-09-03T11:16:37.024Z,31.8
2018-09-03T11:17:27.702Z,32.3
2018-09-03T11:18:17.175Z,32.4
2018-09-03T11:19:06.935Z,32.4
2018-09-03T11:19:57.835Z,32.1
2018-09-03T11:20:47.360Z,31.9
2018-09-03T11:21:39.071Z,32.2
2018-09-03T11:22:26.763Z,31.9
2018-09-03T11:23:17.568Z,31.4
2018-09-03T11:24:07.655Z,31.2
2018-09-03T11:24:57.526Z,30.9
2018-09-03T11:25:47.471Z,30.9
2018-09-03T11:26:37.511Z,30.9
2018-09-03T11:27:28.360Z,30.8
2018-09-03T11:28:17.657Z,30.9
2018-09-03T11:29:08.021Z,30.8
2018-09-03T11:29:57.789Z,30.9
2018-09-03T11:30:48.131Z,30.8
2018-09-03T11:31:37.903Z,30.8
2018-09-03T11:32:27.984Z,31.2
2018-09-03T11:33:18.336Z,31.7
2018-09-03T11:34:08.118Z,31.9
2018-09-03T11:34:58.385Z,31.7
2018-09-03T11:35:47.681Z,31.3
2018-09-03T11:36:38.611Z,31.1
2018-09-03T11:37:28.391Z,30.9
2018-09-03T11:38:18.689Z,31.4
2018-09-03T11:39:08.791Z,31.8
2018-09-03T11:39:58.859Z,32.5
2018-09-03T11:40:48.908Z,32.4
2018-09-03T11:41:38.409Z,31.8
2018-09-03T11:42:29.073Z,31.1
2018-09-03T11:43:19.393Z,31
2018-09-03T11:44:08.611Z,31.3
2018-09-03T11:44:59.250Z,30.9
2018-09-03T11:45:49.051Z,30.8
2018-09-03T11:46:39.382Z,30.7
2018-09-03T11:47:29.137Z,30.7
2018-09-03T11:48:19.501Z,30.8
2018-09-03T11:49:09.336Z,30.8
2018-09-03T11:49:59.639Z,30.6
2018-09-03T11:50:49.254Z,30.8
2018-09-03T11:51:39.233Z,31.1
2018-09-03T11:52:29.587Z,31.1
2018-09-03T11:53:19.330Z,31
2018-09-03T11:54:08.918Z,31.1
2018-09-03T11:54:58.893Z,31.3
2018-09-03T11:55:49.843Z,30.8
2018-09-03T11:56:39.389Z,30.9
2018-09-03T11:57:30.237Z,30.6
2018-09-03T11:58:20.310Z,30.5
2018-09-03T11:59:10.068Z,30.8
2018-09-03T12:00:00.438Z,30.6
2018-09-03T12:00:50.236Z,30.4
2018-09-03T12:01:40.001Z,30.5
2018-09-03T12:02:30.350Z,30.6
2018-09-03T12:03:20.116Z,30.4
2018-09-03T12:04:10.484Z,30.5
2018-09-03T12:05:00.808Z,30.6
2018-09-03T12:05:50.407Z,30.3
2018-09-03T12:06:41.004Z,30.1
2018-09-03T12:07:30.748Z,30.1
2018-09-03T12:08:21.088Z,30.3
2018-09-03T12:09:10.310Z,30.4
2018-09-03T12:10:01.306Z,30.3
2018-09-03T12:10:51.274Z,30.4
2018-09-03T12:11:41.061Z,30.6
2018-09-03T12:12:30.927Z,30.8
2018-09-03T12:13:21.746Z,30.9
2018-09-03T12:14:11.506Z,31.2
2018-09-03T12:15:01.330Z,31.3
2018-09-03T12:15:51.116Z,31.1
2018-09-03T12:16:41.458Z,31
2018-09-03T12:17:31.832Z,31
2018-09-03T12:18:21.292Z,31.3
2018-09-03T12:19:11.974Z,31
2018-09-03T12:20:02.003Z,30.6
2018-09-03T12:20:52.094Z,29.7
2018-09-03T12:21:41.569Z,29.7
2018-09-03T12:22:31.648Z,29.8